createdAt,value
2022-12-19T00:00:28.866Z,9.69
2022-12-19T00:01:28.924Z,9.78
2022-12-19T00:02:29.006Z,9.69
2022-12-19T00:03:29.018Z,9.78
2022-12-19T00:04:28.863Z,9.49
2022-12-19T00:05:28.854Z,9.49
2022-12-19T00:06:28.995Z,9.78
2022-12-19T00:07:28.854Z,9.78
2022-12-19T00:08:28.858Z,9.69
2022-12-19T00:09:28.849Z,9.78
2022-12-19T00:10:28.854Z,9.78
2022-12-19T00:11:28.846Z,9.69
2022-12-19T00:12:28.857Z,9.69
2022-12-19T00:13:28.870Z,9.69
2022-12-19T00:14:28.860Z,9.78
2022-12-19T00:15:28.843Z,9.78
2022-12-19T00:16:28.972Z,9.78
2022-12-19T00:17:28.845Z,9.78
2022-12-19T00:18:28.848Z,10.08
2022-12-19T00:19:28.839Z,10.08
2022-12-19T00:20:28.846Z,9.69
2022-12-19T00:21:28.837Z,9.88
2022-12-19T00:22:28.957Z,10.08
2022-12-19T00:23:28.834Z,9.69
2022-12-19T00:24:28.841Z,9.78
2022-12-19T00:25:28.832Z,9.78
2022-12-19T00:26:28.839Z,9.88
2022-12-19T00:27:28.837Z,9.88
2022-12-19T00:28:28.837Z,9.88
2022-12-19T00:29:28.828Z,9.88
2022-12-19T00:30:28.834Z,9.78
2022-12-19T00:31:28.887Z,9.78
2022-12-19T00:32:28.832Z,9.88
2022-12-19T00:33:28.825Z,9.78
2022-12-19T00:34:28.830Z,9.78
2022-12-19T00:35:28.821Z,9.78
2022-12-19T00:36:28.828Z,9.88
2022-12-19T00:37:28.825Z,9.78
2022-12-19T00:38:28.944Z,9.88
2022-12-19T00:39:28.818Z,9.98
2022-12-19T00:40:28.825Z,9.98
2022-12-19T00:41:28.819Z,9.98
2022-12-19T00:42:28.821Z,9.88
2022-12-19T00:43:28.813Z,9.98
2022-12-19T00:44:28.823Z,9.88
2022-12-19T00:45:28.880Z,9.98
2022-12-19T00:46:28.817Z,9.78
2022-12-19T00:47:28.810Z,9.78
2022-12-19T00:48:28.815Z,9.78
2022-12-19T00:49:28.808Z,9.78
2022-12-19T00:50:28.813Z,9.78
2022-12-19T00:51:28.804Z,9.78
2022-12-19T00:52:28.814Z,9.98
2022-12-19T00:53:28.802Z,9.78
2022-12-19T00:54:28.986Z,9.78
2022-12-19T00:55:28.801Z,9.98
2022-12-19T00:56:28.815Z,9.78
2022-12-19T00:57:28.800Z,9.98
2022-12-19T00:58:28.807Z,9.78
2022-12-19T00:59:28.798Z,9.98
2022-12-19T01:00:28.802Z,9.88
2022-12-19T01:01:28.902Z,9.88
2022-12-19T01:02:28.931Z,9.98
2022-12-19T01:03:28.793Z,9.78
2022-12-19T01:04:30.081Z,9.98
2022-12-19T01:05:28.791Z,9.88
2022-12-19T01:06:28.795Z,9.98
2022-12-19T01:07:28.786Z,9.98
2022-12-19T01:08:28.793Z,9.98
2022-12-19T01:09:28.800Z,9.98
2022-12-19T01:10:28.920Z,9.88
2022-12-19T01:11:28.781Z,9.88
2022-12-19T01:12:28.793Z,10.08
2022-12-19T01:13:28.787Z,10.17
2022-12-19T01:14:28.786Z,10.08
2022-12-19T01:15:28.781Z,9.98
2022-12-19T01:16:28.844Z,9.98
2022-12-19T01:17:28.776Z,10.17
2022-12-19T01:18:28.781Z,10.17
2022-12-19T01:19:28.780Z,9.98
2022-12-19T01:20:29.670Z,10.17
2022-12-19T01:21:28.773Z,10.08
2022-12-19T01:22:28.779Z,10.08
2022-12-19T01:23:28.769Z,10.08
2022-12-19T01:24:28.782Z,10.08
2022-12-19T01:25:28.779Z,10.08
2022-12-19T01:26:28.889Z,10.08
2022-12-19T01:27:28.768Z,10.08
2022-12-19T01:28:28.774Z,10.08
2022-12-19T01:29:28.765Z,10.08
2022-12-19T01:30:29.246Z,10.08
2022-12-19T01:31:28.859Z,10.17
2022-12-19T01:32:28.769Z,10.17
2022-12-19T01:33:28.760Z,10.08
2022-12-19T01:34:28.765Z,10.37
2022-12-19T01:35:28.764Z,10.36
2022-12-19T01:36:28.766Z,10.08
2022-12-19T01:37:28.755Z,10.17
2022-12-19T01:38:28.763Z,10.08
2022-12-19T01:39:28.753Z,10.08
2022-12-19T01:40:28.759Z,10.08
2022-12-19T01:41:28.752Z,10.17
2022-12-19T01:42:28.871Z,10.27
2022-12-19T01:43:28.750Z,10.27
2022-12-19T01:44:28.755Z,10.36
2022-12-19T01:45:33.952Z,10.27
2022-12-19T01:46:28.834Z,10.17
2022-12-19T01:47:28.745Z,10.17
2022-12-19T01:48:28.751Z,10.17
2022-12-19T01:49:28.744Z,10.17
2022-12-19T01:50:28.749Z,10.27
2022-12-19T01:51:28.741Z,10.17
2022-12-19T01:52:28.748Z,10.27
2022-12-19T01:53:28.738Z,10.27
2022-12-19T01:54:28.745Z,10.46
2022-12-19T01:55:28.736Z,10.08
2022-12-19T01:56:28.727Z,10.17
2022-12-19T01:57:28.703Z,9.98
2022-12-19T01:58:28.851Z,10.27
2022-12-19T01:59:28.699Z,10.17
2022-12-19T02:00:28.711Z,10.27
2022-12-19T02:01:28.859Z,10.27
2022-12-19T02:02:28.940Z,10.27
2022-12-19T02:03:28.715Z,10.36
2022-12-19T02:04:30.942Z,10.36
2022-12-19T02:05:28.694Z,10.36
2022-12-19T02:06:28.710Z,10.27
2022-12-19T02:07:28.693Z,10.17
2022-12-19T02:08:28.699Z,10.17
2022-12-19T02:09:28.692Z,10.17
2022-12-19T02:10:28.699Z,10.08
2022-12-19T02:11:28.690Z,10.17
2022-12-19T02:12:28.728Z,10.36
2022-12-19T02:13:28.688Z,10.17
2022-12-19T02:14:28.817Z,10.17
2022-12-19T02:15:28.687Z,10.08
2022-12-19T02:16:30.227Z,10.27
2022-12-19T02:17:28.686Z,10.08
2022-12-19T02:18:28.692Z,10.17
2022-12-19T02:19:28.685Z,10.17
2022-12-19T02:20:30.059Z,10.17
2022-12-19T02:21:28.685Z,10.17
2022-12-19T02:22:28.686Z,10.17
2022-12-19T02:23:28.685Z,10.17
2022-12-19T02:24:28.691Z,10.08
2022-12-19T02:25:28.679Z,10.17
2022-12-19T02:26:28.683Z,10.17
2022-12-19T02:27:28.677Z,10.08
2022-12-19T02:28:28.691Z,10.17
2022-12-19T02:29:28.682Z,10.17
2022-12-19T02:30:28.803Z,9.98
2022-12-19T02:31:28.733Z,10.08
2022-12-19T02:32:28.684Z,10.17
2022-12-19T02:33:28.674Z,10.17
2022-12-19T02:34:28.680Z,10.08
2022-12-19T02:35:28.673Z,10.08
2022-12-19T02:36:28.679Z,10.08
2022-12-19T02:37:28.676Z,10.27
2022-12-19T02:38:28.681Z,10.08
2022-12-19T02:39:29.685Z,10.17
2022-12-19T02:40:28.680Z,10.08
2022-12-19T02:41:28.671Z,10.08
2022-12-19T02:42:28.819Z,9.98
2022-12-19T02:43:28.669Z,10.08
2022-12-19T02:44:28.678Z,10.08
2022-12-19T02:45:29.053Z,10.08
2022-12-19T02:46:28.841Z,10.17
2022-12-19T02:47:28.669Z,10.17
2022-12-19T02:48:28.675Z,10.08
2022-12-19T02:49:30.957Z,10.17
2022-12-19T02:50:28.674Z,9.98
2022-12-19T02:51:28.666Z,10.17
2022-12-19T02:52:28.676Z,10.17
2022-12-19T02:53:28.669Z,9.98
2022-12-19T02:54:28.673Z,10.17
2022-12-19T02:55:28.664Z,10.17
2022-12-19T02:56:28.671Z,9.98
2022-12-19T02:57:28.664Z,9.98
2022-12-19T02:58:28.672Z,10.08
2022-12-19T02:59:28.676Z,10.17
2022-12-19T03:00:28.682Z,10.27
2022-12-19T03:01:28.772Z,10.08
2022-12-19T03:02:29.086Z,10.08
2022-12-19T03:03:28.701Z,10.08
2022-12-19T03:04:28.666Z,10.08
2022-12-19T03:05:28.658Z,9.98
2022-12-19T03:06:28.665Z,10.08
2022-12-19T03:07:28.660Z,10.08
2022-12-19T03:08:28.663Z,10.08
2022-12-19T03:09:28.656Z,9.98
2022-12-19T03:10:28.663Z,10.08
2022-12-19T03:11:28.655Z,10.17
2022-12-19T03:12:28.668Z,9.98
2022-12-19T03:13:28.656Z,10.08
2022-12-19T03:14:28.659Z,10.08
2022-12-19T03:15:28.651Z,10.08
2022-12-19T03:16:28.728Z,10.08
2022-12-19T03:17:28.650Z,10.17
2022-12-19T03:18:28.778Z,10.08
2022-12-19T03:19:28.654Z,10.27
2022-12-19T03:20:28.655Z,10.27
2022-12-19T03:21:28.646Z,10.17
2022-12-19T03:22:28.652Z,10.17
2022-12-19T03:23:28.646Z,10.27
2022-12-19T03:24:28.652Z,10.27
2022-12-19T03:25:28.652Z,10.27
2022-12-19T03:26:28.648Z,10.17
2022-12-19T03:27:28.645Z,10.17
2022-12-19T03:28:28.650Z,10.17
2022-12-19T03:29:28.640Z,10.17
2022-12-19T03:30:28.655Z,10.27
2022-12-19T03:31:28.640Z,10.27
2022-12-19T03:32:28.649Z,10.17
2022-12-19T03:33:28.637Z,10.17
2022-12-19T03:34:28.772Z,10.36
2022-12-19T03:35:28.634Z,9.98
2022-12-19T03:36:28.643Z,10.17
2022-12-19T03:37:28.641Z,10.27
2022-12-19T03:38:28.638Z,10.27
2022-12-19T03:39:28.641Z,10.36
2022-12-19T03:40:28.635Z,10.36
2022-12-19T03:41:28.637Z,10.08
2022-12-19T03:42:28.627Z,10.17
2022-12-19T03:43:28.635Z,10.17
2022-12-19T03:44:28.632Z,10.17
2022-12-19T03:45:28.632Z,10.17
2022-12-19T03:46:28.752Z,10.17
2022-12-19T03:47:28.630Z,10.27
2022-12-19T03:48:28.623Z,10.17
2022-12-19T03:49:28.633Z,10.46
2022-12-19T03:50:28.736Z,10.27
2022-12-19T03:51:28.630Z,10.56
2022-12-19T03:52:28.628Z,10.56
2022-12-19T03:53:28.632Z,10.27
2022-12-19T03:54:28.619Z,10.08
2022-12-19T03:55:28.630Z,10.08
2022-12-19T03:56:28.616Z,10.17
2022-12-19T03:57:28.623Z,10.36
2022-12-19T03:58:28.778Z,10.17
2022-12-19T03:59:28.619Z,10.36
2022-12-19T04:00:28.610Z,10.46
2022-12-19T04:01:28.707Z,10.36
2022-12-19T04:02:28.780Z,10.17
2022-12-19T04:03:28.674Z,10.17
2022-12-19T04:04:28.607Z,10.17
2022-12-19T04:05:28.613Z,10.27
2022-12-19T04:06:28.728Z,10.36
2022-12-19T04:07:28.613Z,10.46
2022-12-19T04:08:28.603Z,10.17
2022-12-19T04:09:28.612Z,10.36
2022-12-19T04:10:28.637Z,10.36
2022-12-19T04:11:28.654Z,10.36
2022-12-19T04:12:28.600Z,10.36
2022-12-19T04:13:28.610Z,10.36
2022-12-19T04:14:28.604Z,10.46
2022-12-19T04:15:28.656Z,10.46
2022-12-19T04:16:28.596Z,10.36
2022-12-19T04:17:28.607Z,10.36
2022-12-19T04:18:28.593Z,10.27
2022-12-19T04:19:28.603Z,10.46
2022-12-19T04:20:28.607Z,10.46
2022-12-19T04:21:28.600Z,10.46
2022-12-19T04:22:28.712Z,10.36
2022-12-19T04:23:28.601Z,10.36
2022-12-19T04:24:28.588Z,10.36
2022-12-19T04:25:29.668Z,10.27
2022-12-19T04:26:28.591Z,10.36
2022-12-19T04:27:28.591Z,10.36
2022-12-19T04:28:28.584Z,10.36
2022-12-19T04:29:28.594Z,10.36
2022-12-19T04:30:28.589Z,10.36
2022-12-19T04:31:28.665Z,10.36
2022-12-19T04:32:28.583Z,10.46
2022-12-19T04:33:28.588Z,10.36
2022-12-19T04:34:28.576Z,10.46
2022-12-19T04:35:28.584Z,10.46
2022-12-19T04:36:28.576Z,10.36
2022-12-19T04:37:28.582Z,10.46
2022-12-19T04:38:28.595Z,10.36
2022-12-19T04:39:28.581Z,10.46
2022-12-19T04:40:28.581Z,10.36
2022-12-19T04:41:28.577Z,10.56
2022-12-19T04:42:28.569Z,10.36
2022-12-19T04:43:28.580Z,10.36
2022-12-19T04:44:28.565Z,10.46
2022-12-19T04:45:28.574Z,10.36
2022-12-19T04:46:28.651Z,10.36
2022-12-19T04:47:28.570Z,10.27
2022-12-19T04:48:28.568Z,10.36
2022-12-19T04:49:28.569Z,10.46
2022-12-19T04:50:28.557Z,10.56
2022-12-19T04:51:28.569Z,10.36
2022-12-19T04:52:28.558Z,10.36
2022-12-19T04:53:28.562Z,10.56
2022-12-19T04:54:28.675Z,10.46
2022-12-19T04:55:28.576Z,10.56
2022-12-19T04:56:28.551Z,10.66
2022-12-19T04:57:28.558Z,10.66
2022-12-19T04:58:28.697Z,10.56
2022-12-19T04:59:28.556Z,10.56
2022-12-19T05:00:28.546Z,10.56
2022-12-19T05:01:28.669Z,10.56
2022-12-19T05:02:28.772Z,10.46
2022-12-19T05:03:28.585Z,10.56
2022-12-19T05:04:28.551Z,10.56
2022-12-19T05:05:28.549Z,10.46
2022-12-19T05:06:28.541Z,10.66
2022-12-19T05:07:28.547Z,10.66
2022-12-19T05:08:28.540Z,10.46
2022-12-19T05:09:28.554Z,10.36
2022-12-19T05:10:28.670Z,10.36
2022-12-19T05:11:28.542Z,10.36
2022-12-19T05:12:28.535Z,10.36
2022-12-19T05:13:28.541Z,10.56
2022-12-19T05:14:28.531Z,10.46
2022-12-19T05:15:28.538Z,10.36
2022-12-19T05:16:28.582Z,10.36
2022-12-19T05:17:28.546Z,10.36
2022-12-19T05:18:28.530Z,10.17
2022-12-19T05:19:28.537Z,10.56
2022-12-19T05:20:28.524Z,10.17
2022-12-19T05:21:28.535Z,10.08
2022-12-19T05:22:28.521Z,10.17
2022-12-19T05:23:28.526Z,10.08
2022-12-19T05:24:28.520Z,10.17
2022-12-19T05:25:28.524Z,10.27
2022-12-19T05:26:28.633Z,10.17
2022-12-19T05:27:28.521Z,10.17
2022-12-19T05:28:28.513Z,10.17
2022-12-19T05:29:28.524Z,10.27
2022-12-19T05:30:28.513Z,10.08
2022-12-19T05:31:28.570Z,10.08
2022-12-19T05:32:28.509Z,10.08
2022-12-19T05:33:28.516Z,9.98
2022-12-19T05:34:28.507Z,10.08
2022-12-19T05:35:28.513Z,9.98
2022-12-19T05:36:32.427Z,10.08
2022-12-19T05:37:28.555Z,10.17
2022-12-19T05:38:28.502Z,9.98
2022-12-19T05:39:28.510Z,10.17
2022-12-19T05:40:28.501Z,10.17
2022-12-19T05:41:28.507Z,10.08
2022-12-19T05:42:28.623Z,10.17
2022-12-19T05:43:28.502Z,10.27
2022-12-19T05:44:28.500Z,9.98
2022-12-19T05:45:28.504Z,10.08
2022-12-19T05:46:28.519Z,10.27
2022-12-19T05:47:28.506Z,10.08
2022-12-19T05:48:28.489Z,10.17
2022-12-19T05:49:28.497Z,10.17
2022-12-19T05:50:28.495Z,10.08
2022-12-19T05:51:28.492Z,10.08
2022-12-19T05:52:28.496Z,10.08
2022-12-19T05:53:28.499Z,10.08
2022-12-19T05:54:28.491Z,10.17
2022-12-19T05:55:28.490Z,10.17
2022-12-19T05:56:28.485Z,10.08
2022-12-19T05:57:28.485Z,10.08
2022-12-19T05:58:28.604Z,10.17
2022-12-19T05:59:28.490Z,10.17
2022-12-19T06:00:28.477Z,10.08
2022-12-19T06:01:28.540Z,10.17
2022-12-19T06:02:28.635Z,10.17
2022-12-19T06:03:28.539Z,10.08
2022-12-19T06:04:28.475Z,10.17
2022-12-19T06:05:28.476Z,10.08
2022-12-19T06:06:28.468Z,10.17
2022-12-19T06:07:28.473Z,10.17
2022-12-19T06:08:28.465Z,10.08
2022-12-19T06:09:28.478Z,10.36
2022-12-19T06:10:28.471Z,10.08
2022-12-19T06:11:28.474Z,10.17
2022-12-19T06:12:28.460Z,10.17
2022-12-19T06:13:28.467Z,10.08
2022-12-19T06:14:28.592Z,9.98
2022-12-19T06:15:28.464Z,10.08
2022-12-19T06:16:28.560Z,9.98
2022-12-19T06:17:28.464Z,9.98
2022-12-19T06:18:28.456Z,9.98
2022-12-19T06:19:28.461Z,9.98
2022-12-19T06:20:28.470Z,9.98
2022-12-19T06:21:28.460Z,9.98
2022-12-19T06:22:28.457Z,10.17
2022-12-19T06:23:28.457Z,9.98
2022-12-19T06:24:28.446Z,10.17
2022-12-19T06:25:28.456Z,9.98
2022-12-19T06:26:28.445Z,10.08
2022-12-19T06:27:28.450Z,10.17
2022-12-19T06:28:28.453Z,10.17
2022-12-19T06:29:28.456Z,10.27
2022-12-19T06:30:28.570Z,10.17
2022-12-19T06:31:28.496Z,10.08
2022-12-19T06:32:29.791Z,10.27
2022-12-19T06:33:28.442Z,10.27
2022-12-19T06:35:02.119Z,10.27
2022-12-19T06:35:28.440Z,10.17
2022-12-19T06:36:28.443Z,10.17
2022-12-19T06:37:28.437Z,10.27
2022-12-19T06:38:28.429Z,10.17
2022-12-19T06:39:28.435Z,10.17
2022-12-19T06:40:28.425Z,10.17
2022-12-19T06:41:28.440Z,10.17
2022-12-19T06:42:28.425Z,10.17
2022-12-19T06:43:28.431Z,10.17
2022-12-19T06:44:28.420Z,10.17
2022-12-19T06:45:28.514Z,10.27
2022-12-19T06:46:28.566Z,10.27
2022-12-19T06:47:28.426Z,10.08
2022-12-19T06:48:28.418Z,10.36
2022-12-19T06:49:28.422Z,10.27
2022-12-19T06:50:28.425Z,10.17
2022-12-19T06:51:28.435Z,10.08
2022-12-19T06:52:28.413Z,10.08
2022-12-19T06:53:28.417Z,10.17
2022-12-19T06:54:28.408Z,10.08
2022-12-19T06:55:28.412Z,10.27
2022-12-19T06:56:28.408Z,10.08
2022-12-19T06:57:28.412Z,10.17
2022-12-19T06:58:28.409Z,10.08
2022-12-19T06:59:28.408Z,10.36
2022-12-19T07:00:28.414Z,10.27
2022-12-19T07:01:28.488Z,10.17
2022-12-19T07:02:28.658Z,10.08
2022-12-19T07:03:28.408Z,10.17
2022-12-19T07:04:28.397Z,10.08
2022-12-19T07:05:28.405Z,10.17
2022-12-19T07:06:28.408Z,10.17
2022-12-19T07:07:28.401Z,10.17
2022-12-19T07:08:28.394Z,10.17
2022-12-19T07:09:28.398Z,10.17
2022-12-19T07:10:28.491Z,10.17
2022-12-19T07:11:28.395Z,10.27
2022-12-19T07:12:28.422Z,10.17
2022-12-19T07:13:28.397Z,10.36
2022-12-19T07:14:28.397Z,10.17
2022-12-19T07:15:28.390Z,10.17
2022-12-19T07:16:28.412Z,10.08
2022-12-19T07:17:28.397Z,10.27
2022-12-19T07:18:28.504Z,10.17
2022-12-19T07:19:28.386Z,10.17
2022-12-19T07:20:28.377Z,10.27
2022-12-19T07:21:28.384Z,10.36
2022-12-19T07:22:28.374Z,10.36
2022-12-19T07:23:28.381Z,10.08
2022-12-19T07:24:28.373Z,10.17
2022-12-19T07:25:28.384Z,10.17
2022-12-19T07:26:28.381Z,10.08
2022-12-19T07:27:33.995Z,10.08
2022-12-19T07:28:28.372Z,10.17
2022-12-19T07:29:28.377Z,10.17
2022-12-19T07:30:28.366Z,10.17
2022-12-19T07:31:28.414Z,10.46
2022-12-19T07:32:28.366Z,10.17
2022-12-19T07:33:28.373Z,10.17
2022-12-19T07:34:28.479Z,10.17
2022-12-19T07:35:28.367Z,10.17
2022-12-19T07:36:28.376Z,10.17
2022-12-19T07:37:28.367Z,10.17
2022-12-19T07:38:28.358Z,10.27
2022-12-19T07:39:28.361Z,10.27
2022-12-19T07:40:28.353Z,10.08
2022-12-19T07:41:28.360Z,10.17
2022-12-19T07:42:32.512Z,10.17
2022-12-19T07:43:28.363Z,10.17
2022-12-19T07:44:28.350Z,10.17
2022-12-19T07:45:28.405Z,10.17
2022-12-19T07:46:28.347Z,10.17
2022-12-19T07:47:28.359Z,10.27
2022-12-19T07:48:28.353Z,10.27
2022-12-19T07:49:28.351Z,10.17
2022-12-19T07:50:28.591Z,10.17
2022-12-19T07:51:28.349Z,10.27
2022-12-19T07:52:28.344Z,10.85
2022-12-19T07:53:28.402Z,10.36
2022-12-19T07:54:28.340Z,10.36
2022-12-19T07:55:28.341Z,10.56
2022-12-19T07:56:28.348Z,10.75
2022-12-19T07:57:28.349Z,10.36
2022-12-19T07:58:28.343Z,10.08
2022-12-19T07:59:32.199Z,10.08
2022-12-19T08:00:28.451Z,10.17
2022-12-19T08:01:28.505Z,10.17
2022-12-19T08:02:28.459Z,10.27
2022-12-19T08:03:28.619Z,10.36
2022-12-19T08:04:28.342Z,10.36
2022-12-19T08:05:28.327Z,10.36
2022-12-19T08:06:28.450Z,10.36
2022-12-19T08:07:28.333Z,10.56
2022-12-19T08:08:28.331Z,10.36
2022-12-19T08:09:28.328Z,10.37
2022-12-19T08:10:28.452Z,10.36
2022-12-19T08:11:28.321Z,10.66
2022-12-19T08:12:28.330Z,10.66
2022-12-19T08:13:31.125Z,10.56
2022-12-19T08:14:28.329Z,10.75
2022-12-19T08:15:28.314Z,10.66
2022-12-19T08:16:28.380Z,10.66
2022-12-19T08:17:28.371Z,10.57
2022-12-19T08:18:28.319Z,10.66
2022-12-19T08:19:28.312Z,10.47
2022-12-19T08:20:28.322Z,10.57
2022-12-19T08:21:28.307Z,10.57
2022-12-19T08:22:28.433Z,10.95
2022-12-19T08:23:28.308Z,10.85
2022-12-19T08:24:28.312Z,10.75
2022-12-19T08:25:28.305Z,10.85
2022-12-19T08:26:31.240Z,10.95
2022-12-19T08:27:28.311Z,10.85
2022-12-19T08:28:28.310Z,10.57
2022-12-19T08:29:28.307Z,10.95
2022-12-19T08:30:28.448Z,10.57
2022-12-19T08:31:28.298Z,10.85
2022-12-19T08:32:28.306Z,10.85
2022-12-19T08:33:28.299Z,11.15
2022-12-19T08:34:28.306Z,10.85
2022-12-19T08:35:28.296Z,10.75
2022-12-19T08:36:28.303Z,10.57
2022-12-19T08:37:28.295Z,10.75
2022-12-19T08:38:28.335Z,10.57
2022-12-19T08:39:28.312Z,10.85
2022-12-19T08:40:28.300Z,10.75
2022-12-19T08:41:28.292Z,10.57
2022-12-19T08:42:28.301Z,10.75
2022-12-19T08:43:28.289Z,10.75
2022-12-19T08:44:28.301Z,10.75
2022-12-19T08:45:28.289Z,10.57
2022-12-19T08:46:28.392Z,10.57
2022-12-19T08:47:28.287Z,10.85
2022-12-19T08:48:28.293Z,10.66
2022-12-19T08:49:28.288Z,10.57
2022-12-19T08:50:28.292Z,10.75
2022-12-19T08:51:28.284Z,10.57
2022-12-19T08:52:28.292Z,10.57
2022-12-19T08:53:28.287Z,10.57
2022-12-19T08:54:28.411Z,10.76
2022-12-19T08:55:28.280Z,10.76
2022-12-19T08:56:28.295Z,10.76
2022-12-19T08:57:28.293Z,11.05
2022-12-19T08:58:28.292Z,10.76
2022-12-19T08:59:31.463Z,10.75
2022-12-19T09:00:28.293Z,10.76
2022-12-19T09:01:28.402Z,10.76
2022-12-19T09:02:28.471Z,10.86
2022-12-19T09:03:38.265Z,10.76
2022-12-19T09:05:45.197Z,10.96
2022-12-19T09:06:00.676Z,10.86
2022-12-19T09:06:28.404Z,10.76
2022-12-19T09:07:28.271Z,10.57
2022-12-19T09:08:28.277Z,10.57
2022-12-19T09:09:28.269Z,10.86
2022-12-19T09:10:28.399Z,10.57
2022-12-19T09:11:28.266Z,10.57
2022-12-19T09:12:28.275Z,10.86
2022-12-19T09:13:28.283Z,10.86
2022-12-19T09:14:28.274Z,10.76
2022-12-19T09:15:28.280Z,10.57
2022-12-19T09:16:28.338Z,10.86
2022-12-19T09:17:28.270Z,10.66
2022-12-19T09:18:28.273Z,10.57
2022-12-19T09:19:28.264Z,10.57
2022-12-19T09:20:28.272Z,10.66
2022-12-19T09:21:28.269Z,10.66
2022-12-19T09:22:29.511Z,10.96
2022-12-19T09:23:28.262Z,10.86
2022-12-19T09:24:28.277Z,10.96
2022-12-19T09:25:28.258Z,10.96
2022-12-19T09:26:28.392Z,10.86
2022-12-19T09:27:28.262Z,10.76
2022-12-19T09:28:28.512Z,10.86
2022-12-19T09:29:32.207Z,10.66
2022-12-19T09:30:28.263Z,10.76
2022-12-19T09:31:28.335Z,10.86
2022-12-19T09:32:28.264Z,10.76
2022-12-19T09:33:28.256Z,10.86
2022-12-19T09:34:36.956Z,10.57
2022-12-19T09:35:30.576Z,10.47
2022-12-19T09:36:28.267Z,10.76
2022-12-19T09:37:28.251Z,10.86
2022-12-19T09:38:28.272Z,10.76
2022-12-19T09:39:28.252Z,10.76
2022-12-19T09:40:28.276Z,10.96
2022-12-19T09:41:28.248Z,10.76
2022-12-19T09:42:28.379Z,10.86
2022-12-19T09:43:28.268Z,10.76
2022-12-19T09:44:28.263Z,10.76
2022-12-19T09:45:32.231Z,10.86
2022-12-19T09:46:28.331Z,10.86
2022-12-19T09:47:28.253Z,10.76
2022-12-19T09:48:28.256Z,10.86
2022-12-19T09:49:28.247Z,10.76
2022-12-19T09:50:28.258Z,10.96
2022-12-19T09:51:28.272Z,10.76
2022-12-19T09:52:31.488Z,10.76
2022-12-19T09:53:28.246Z,10.76
2022-12-19T09:54:28.249Z,10.67
2022-12-19T09:55:28.243Z,10.77
2022-12-19T09:56:28.271Z,10.67
2022-12-19T09:57:28.243Z,10.57
2022-12-19T09:58:28.371Z,10.77
2022-12-19T09:59:39.747Z,10.57
2022-12-19T10:00:28.250Z,10.57
2022-12-19T10:01:28.328Z,10.67
2022-12-19T10:02:28.520Z,10.77
2022-12-19T10:03:28.314Z,10.77
2022-12-19T10:04:28.244Z,10.76
2022-12-19T10:06:32.237Z,10.96
2022-12-19T10:07:18.726Z,10.86
2022-12-19T10:08:01.278Z,10.86
2022-12-19T10:08:28.255Z,10.86
2022-12-19T10:11:46.240Z,10.77
2022-12-19T10:12:36.645Z,10.77
2022-12-19T10:12:40.359Z,10.67
2022-12-19T10:12:43.318Z,10.77
2022-12-19T10:13:28.235Z,10.96
2022-12-19T10:14:28.360Z,11.06
2022-12-19T10:15:28.348Z,10.86
2022-12-19T10:16:28.335Z,10.77
2022-12-19T10:17:28.231Z,11.06
2022-12-19T10:18:30.396Z,11.16
2022-12-19T10:19:28.232Z,10.96
2022-12-19T10:20:28.236Z,10.96
2022-12-19T10:21:58.861Z,10.86
2022-12-19T10:22:28.243Z,10.57
2022-12-19T10:23:29.354Z,10.96
2022-12-19T10:24:34.757Z,10.86
2022-12-19T10:25:28.226Z,10.86
2022-12-19T10:26:30.108Z,11.06
2022-12-19T10:27:28.229Z,10.96
2022-12-19T10:28:28.246Z,10.86
2022-12-19T10:29:28.225Z,10.96
2022-12-19T10:30:31.345Z,10.86
2022-12-19T10:31:28.293Z,10.96
2022-12-19T10:32:28.249Z,10.96
2022-12-19T10:33:28.226Z,10.77
2022-12-19T10:34:28.233Z,11.06
2022-12-19T10:35:28.223Z,11.16
2022-12-19T10:36:55.966Z,11.16
2022-12-19T10:37:40.696Z,11.25
2022-12-19T10:38:28.298Z,11.16
2022-12-19T10:39:28.220Z,11.16
2022-12-19T10:40:29.069Z,11.06
2022-12-19T10:41:28.219Z,10.67
2022-12-19T10:42:28.230Z,11.25
2022-12-19T10:43:33.633Z,10.77
2022-12-19T10:44:28.235Z,10.86
2022-12-19T10:45:28.218Z,11.16
2022-12-19T10:46:28.424Z,11.16
2022-12-19T10:47:28.278Z,12.61
2022-12-19T10:48:30.533Z,11.74
2022-12-19T10:49:28.217Z,11.54
2022-12-19T10:50:28.229Z,11.54
2022-12-19T10:51:28.214Z,11.45
2022-12-19T10:52:28.222Z,11.25
2022-12-19T10:53:28.228Z,10.67
2022-12-19T10:54:33.648Z,11.25
2022-12-19T10:55:28.215Z,11.45
2022-12-19T10:56:35.007Z,11.83
2022-12-19T10:57:28.248Z,11.74
2022-12-19T10:58:28.228Z,11.35
2022-12-19T10:59:28.223Z,11.16
2022-12-19T11:00:28.220Z,11.16
2022-12-19T11:01:28.432Z,11.16
2022-12-19T11:02:28.481Z,11.16
2022-12-19T11:03:28.400Z,10.96
2022-12-19T11:04:28.284Z,11.55
2022-12-19T11:05:28.339Z,11.45
2022-12-19T11:06:28.215Z,11.25
2022-12-19T11:07:28.237Z,11.84
2022-12-19T11:08:28.227Z,11.45
2022-12-19T11:09:28.208Z,11.35
2022-12-19T11:11:24.793Z,11.25
2022-12-19T11:14:30.798Z,11.25
2022-12-19T11:15:53.882Z,11.16
2022-12-19T11:17:24.906Z,11.54
2022-12-19T11:19:32.552Z,11.35
2022-12-19T11:21:07.789Z,11.35
2022-12-19T11:22:38.028Z,11.35
2022-12-19T11:24:27.257Z,11.45
2022-12-19T11:27:54.241Z,11.45
2022-12-19T11:27:54.592Z,11.45
2022-12-19T11:29:18.860Z,11.45
2022-12-19T11:29:27.068Z,11.45
2022-12-19T11:29:36.670Z,11.54
2022-12-19T11:29:38.651Z,11.64
2022-12-19T11:29:39.898Z,11.45
2022-12-19T11:29:54.946Z,11.45
2022-12-19T11:30:35.805Z,11.45
2022-12-19T11:30:36.056Z,11.45
2022-12-19T11:30:45.505Z,11.64
2022-12-19T11:32:32.241Z,11.83
2022-12-19T11:32:45.843Z,11.74
2022-12-19T11:33:28.265Z,11.35
2022-12-19T11:34:28.339Z,11.45
2022-12-19T11:35:37.120Z,11.54
2022-12-19T11:36:28.212Z,11.54
2022-12-19T11:37:28.199Z,11.54
2022-12-19T11:38:28.207Z,11.54
2022-12-19T11:39:28.200Z,11.35
2022-12-19T11:40:28.209Z,11.45
2022-12-19T11:41:28.197Z,11.45
2022-12-19T11:42:28.203Z,11.54
2022-12-19T11:43:45.731Z,11.54
2022-12-19T11:44:28.206Z,11.25
2022-12-19T11:45:28.197Z,11.35
2022-12-19T11:46:28.214Z,11.93
2022-12-19T11:47:28.196Z,11.83
2022-12-19T11:48:28.202Z,11.83
2022-12-19T11:49:28.195Z,11.83
2022-12-19T11:50:28.320Z,11.83
2022-12-19T11:51:28.196Z,11.64
2022-12-19T11:53:28.199Z,11.64
2022-12-19T11:54:28.207Z,11.54
2022-12-19T11:55:28.199Z,11.54
2022-12-19T11:56:28.197Z,11.64
2022-12-19T11:57:28.193Z,11.45
2022-12-19T11:58:28.300Z,11.25
2022-12-19T11:59:28.190Z,11.35
2022-12-19T12:00:28.199Z,11.16
2022-12-19T12:01:28.244Z,11.35
2022-12-19T12:02:28.201Z,11.16
2022-12-19T12:03:28.258Z,11.54
2022-12-19T12:04:28.246Z,11.25
2022-12-19T12:05:28.193Z,11.45
2022-12-19T12:06:31.597Z,11.25
2022-12-19T12:08:10.143Z,11.25
2022-12-19T12:09:34.399Z,11.16
2022-12-19T12:13:14.839Z,11.16
2022-12-19T12:14:59.657Z,11.25
2022-12-19T12:17:34.870Z,11.16
2022-12-19T12:22:35.543Z,11.25
2022-12-19T12:25:21.273Z,11.16
2022-12-19T12:25:33.080Z,11.25
2022-12-19T12:26:26.827Z,11.25
2022-12-19T12:29:14.465Z,11.16
2022-12-19T12:31:01.593Z,11.25
2022-12-19T12:31:04.572Z,11.16
2022-12-19T12:31:12.797Z,11.25
2022-12-19T12:31:14.478Z,11.16
2022-12-19T12:31:22.780Z,11.16
2022-12-19T12:31:26.457Z,11.06
2022-12-19T12:31:30.556Z,11.16
2022-12-19T12:31:42.779Z,11.44
2022-12-19T12:31:47.319Z,11.35
2022-12-19T12:31:47.724Z,11.44
2022-12-19T12:31:50.060Z,11.35
2022-12-19T12:31:52.366Z,11.35
2022-12-19T12:31:58.821Z,11.45
2022-12-19T12:32:05.070Z,11.35
2022-12-19T12:35:33.129Z,11.45
2022-12-19T12:35:38.341Z,11.54
2022-12-19T12:35:55.109Z,11.54
2022-12-19T12:38:29.118Z,11.63
2022-12-19T12:39:33.533Z,11.44
2022-12-19T12:40:28.176Z,11.35
2022-12-19T12:41:28.180Z,11.54
2022-12-19T12:42:28.169Z,11.35
2022-12-19T12:43:28.175Z,11.54
2022-12-19T12:44:32.569Z,11.35
2022-12-19T12:45:28.183Z,11.93
2022-12-19T12:46:28.218Z,11.83
2022-12-19T12:47:28.177Z,11.63
2022-12-19T12:48:28.274Z,11.63
2022-12-19T12:49:28.176Z,11.63
2022-12-19T12:50:28.165Z,12.02
2022-12-19T12:51:28.177Z,12.02
2022-12-19T12:52:28.165Z,11.93
2022-12-19T12:53:28.174Z,12.12
2022-12-19T12:54:28.190Z,12.32
2022-12-19T12:55:28.170Z,12.12
2022-12-19T12:56:28.167Z,12.32
2022-12-19T12:57:28.688Z,12.32
2022-12-19T12:58:28.163Z,12.41
2022-12-19T12:59:28.172Z,12.41
2022-12-19T13:00:28.169Z,12.32
2022-12-19T13:01:28.315Z,12.41
2022-12-19T13:02:28.273Z,12.22